Time;durP1;ratioP1;P1;durP2;ratioP2;P2;SDS_P1;SDS_P2;PMS_P1;PMS_P2;Temp;Humidity;BMP_temperature;BMP_pressure;BME280_temperature;BME280_humidity;BME280_pressure;Samples;Min_cycle;Max_cycle;Signal;HPM_P1;HPM_P2
2023/04/18 00:02:16;;;;;;;24.30;12.30;;;;;;;8.72;81.73;99409.91;105595;1256;107112;-78
2023/04/18 00:04:45;;;;;;;20.60;10.50;;;;;;;8.74;81.83;99413.14;105286;1253;99141;-79
2023/04/18 00:07:14;;;;;;;21.80;11.30;;;;;;;8.75;81.79;99413.08;105410;1255;98528;-78
2023/04/18 00:09:43;;;;;;;21.00;10.30;;;;;;;8.77;81.86;99407.64;105286;1274;110892;-79
2023/04/18 00:12:11;;;;;;;24.30;12.10;;;;;;;8.79;81.79;99406.98;105301;1256;100782;-79
2023/04/18 00:14:40;;;;;;;20.20;11.10;;;;;;;8.80;81.70;99408.00;105223;1256;108244;-81
2023/04/18 00:17:08;;;;;;;24.90;13.10;;;;;;;8.79;81.89;99408.21;105357;1255;98023;-80
2023/04/18 00:19:36;;;;;;;24.50;12.40;;;;;;;8.80;81.80;99407.10;105221;1258;98350;-79
2023/04/18 00:22:05;;;;;;;21.70;12.20;;;;;;;8.81;81.74;99407.23;105193;1274;112705;-77
2023/04/18 00:24:33;;;;;;;23.40;12.60;;;;;;;8.82;81.78;99408.23;105352;1254;101940;-79
2023/04/18 00:27:02;;;;;;;25.80;13.40;;;;;;;8.82;81.67;99407.15;105353;1251;105677;-79
2023/04/18 00:29:30;;;;;;;25.80;14.50;;;;;;;8.83;81.76;99404.98;105364;1252;99301;-80
2023/04/18 00:31:58;;;;;;;25.00;14.20;;;;;;;8.82;81.76;99406.79;105386;1255;98450;-79
2023/04/18 00:34:26;;;;;;;27.20;15.30;;;;;;;8.82;81.72;99404.67;105151;1256;110728;-80
2023/04/18 00:36:53;;;;;;;27.30;16.20;;;;;;;8.82;81.77;99406.07;105388;1253;102193;-78
2023/04/18 00:39:21;;;;;;;28.10;16.40;;;;;;;8.81;81.75;99408.45;105178;1256;107599;-78
2023/04/18 00:41:49;;;;;;;31.40;18.60;;;;;;;8.81;81.79;99407.74;105145;1256;98012;-79
2023/04/18 00:44:18;;;;;;;27.20;16.70;;;;;;;8.84;82.14;99409.70;105407;1255;99266;-78
2023/04/18 00:46:46;;;;;;;29.10;17.30;;;;;;;8.86;82.09;99408.88;105346;1257;110762;-79
2023/04/18 00:49:14;;;;;;;28.60;17.30;;;;;;;8.89;81.96;99408.52;105205;1251;102272;-81
2023/04/18 00:51:42;;;;;;;31.10;19.30;;;;;;;8.91;82.24;99408.01;105144;1256;107587;-78
2023/04/18 00:54:11;;;;;;;30.00;17.80;;;;;;;8.95;82.06;99411.52;105267;1256;97948;-79
2023/04/18 00:56:41;;;;;;;31.90;18.90;;;;;;;8.97;81.97;99410.14;105313;1253;99097;-80
2023/04/18 00:59:10;;;;;;;30.20;18.70;;;;;;;8.99;82.16;99413.02;105292;1256;110696;-79
2023/04/18 01:01:38;;;;;;;27.10;16.60;;;;;;;9.01;81.92;99408.52;105587;1256;101992;-80
2023/04/18 01:04:06;;;;;;;30.70;17.30;;;;;;;9.02;82.01;99409.34;105326;1255;107699;-80
2023/04/18 01:06:35;;;;;;;25.60;15.70;;;;;;;9.02;81.93;99410.70;105322;1254;99245;-81
2023/04/18 01:09:04;;;;;;;30.40;17.50;;;;;;;9.03;81.88;99409.42;105363;1252;98488;-78
2023/04/18 01:11:32;;;;;;;28.40;16.70;;;;;;;9.04;81.89;99409.40;105467;1255;111968;-80
2023/04/18 01:14:02;;;;;;;30.20;18.10;;;;;;;9.04;81.85;99409.22;105130;1256;102085;-79
2023/04/18 01:16:35;;;;;;;29.00;16.80;;;;;;;9.03;81.97;99410.52;105288;1256;105715;-79
2023/04/18 01:19:04;;;;;;;32.80;17.60;;;;;;;9.03;82.07;99414.59;105239;1255;98882;-81
2023/04/18 01:21:34;;;;;;;29.10;16.50;;;;;;;9.01;81.97;99412.54;105265;1256;97993;-79
2023/04/18 01:24:07;;;;;;;29.00;16.50;;;;;;;9.00;81.83;99410.84;105291;1255;111246;-80
2023/04/18 01:26:35;;;;;;;29.60;16.90;;;;;;;9.00;81.97;99410.68;105498;1256;101756;-79
2023/04/18 01:29:04;;;;;;;29.70;16.90;;;;;;;8.99;81.92;99410.22;105404;1252;107241;-79
2023/04/18 01:31:34;;;;;;;28.80;16.90;;;;;;;8.98;81.95;99409.39;105291;1251;98100;-80
2023/04/18 01:34:04;;;;;;;31.40;18.60;;;;;;;8.97;81.91;99417.92;105459;1253;98454;-79
2023/04/18 01:36:32;;;;;;;31.70;17.70;;;;;;;8.96;81.91;99415.15;105375;1256;110815;-80
2023/04/18 01:39:00;;;;;;;28.80;18.00;;;;;;;8.96;81.80;99415.02;105154;1274;102018;-77
2023/04/18 01:41:31;;;;;;;32.30;18.50;;;;;;;8.94;81.82;99410.16;105269;1256;107661;-79
2023/04/18 01:44:00;;;;;;;29.10;17.10;;;;;;;8.89;81.69;99410.62;105299;1255;97931;-78
2023/04/18 01:46:28;;;;;;;30.80;17.50;;;;;;;8.84;81.68;99413.05;105424;1255;98409;-79
2023/04/18 01:48:58;;;;;;;33.10;19.20;;;;;;;8.78;81.66;99409.67;105201;1255;110877;-80
2023/04/18 01:51:26;;;;;;;31.30;18.70;;;;;;;8.73;81.80;99410.17;105480;1258;103345;-79
2023/04/18 01:53:54;;;;;;;33.00;18.00;;;;;;;8.68;81.87;99409.38;105392;1265;107247;-79
2023/04/18 01:56:22;;;;;;;31.30;17.80;;;;;;;8.63;81.74;99409.34;105415;1253;98050;-80
2023/04/18 01:58:51;;;;;;;31.30;18.20;;;;;;;8.59;81.83;99411.88;105342;1256;98501;-79
2023/04/18 02:01:18;;;;;;;29.90;16.40;;;;;;;8.55;81.72;99414.94;105168;1252;109505;-79
2023/04/18 02:03:47;;;;;;;30.40;18.00;;;;;;;8.52;81.86;99414.09;105346;1255;104038;-81
2023/04/18 02:06:15;;;;;;;31.10;17.90;;;;;;;8.48;81.88;99410.35;105446;1251;107631;-79
2023/04/18 02:08:43;;;;;;;27.30;16.40;;;;;;;8.47;81.71;99415.54;105014;1256;98010;-79
2023/04/18 02:11:11;;;;;;;29.70;17.50;;;;;;;8.44;81.87;99411.83;105363;1255;98441;-76
2023/04/18 02:13:39;;;;;;;30.30;16.80;;;;;;;8.44;81.77;99416.45;105137;1256;110927;-81
2023/04/18 02:16:11;;;;;;;30.00;16.10;;;;;;;8.42;81.82;99413.91;105291;1256;101964;-79
2023/04/18 02:18:42;;;;;;;29.80;17.40;;;;;;;8.39;81.75;99414.08;105177;1267;107224;-78
2023/04/18 02:21:10;;;;;;;31.10;17.80;;;;;;;8.36;81.57;99417.77;105297;1256;97993;-80
2023/04/18 02:23:39;;;;;;;30.70;17.00;;;;;;;8.33;81.81;99420.60;105280;1251;98543;-78
2023/04/18 02:26:07;;;;;;;33.00;18.10;;;;;;;8.31;81.72;99420.52;105382;1255;111183;-79
2023/04/18 02:28:37;;;;;;;31.40;17.50;;;;;;;8.29;81.72;99417.96;105364;1253;100766;-80
2023/04/18 02:31:06;;;;;;;30.70;18.80;;;;;;;8.28;81.70;99418.05;105191;1255;107439;-79
2023/04/18 02:33:34;;;;;;;38.20;18.10;;;;;;;8.26;81.68;99421.18;105408;1254;99438;-79
2023/04/18 02:36:02;;;;;;;31.40;18.30;;;;;;;8.24;81.62;99417.20;105377;1254;98410;-79
2023/04/18 02:38:31;;;;;;;32.50;18.20;;;;;;;8.22;81.84;99416.27;105421;1255;110981;-80
2023/04/18 02:40:58;;;;;;;36.10;18.10;;;;;;;8.20;81.65;99416.17;105470;1254;102217;-80
2023/04/18 02:43:26;;;;;;;30.30;17.70;;;;;;;8.19;81.82;99416.80;105183;1274;107395;-80
2023/04/18 02:45:54;;;;;;;31.30;16.20;;;;;;;8.16;81.90;99415.16;105402;1256;97920;-79
2023/04/18 02:48:23;;;;;;;29.50;17.10;;;;;;;8.15;81.79;99420.02;105424;1251;98435;-82
2023/04/18 02:50:51;;;;;;;29.30;16.90;;;;;;;8.13;81.84;99424.52;105048;1256;111015;-79
2023/04/18 02:53:22;;;;;;;30.80;18.00;;;;;;;8.12;81.70;99425.86;105389;1252;102265;-79
2023/04/18 02:55:50;;;;;;;31.50;17.10;;;;;;;8.10;81.75;99428.27;105194;1274;107188;-71
2023/04/18 02:58:18;;;;;;;30.60;18.20;;;;;;;8.08;81.73;99431.02;105399;1251;97954;-72
2023/04/18 03:00:45;;;;;;;31.10;17.10;;;;;;;8.06;81.83;99427.77;105316;1255;98447;-73
2023/04/18 03:03:13;;;;;;;29.20;17.20;;;;;;;8.05;81.83;99428.55;105043;1252;110375;-77
2023/04/18 03:05:42;;;;;;;30.00;17.20;;;;;;;8.03;81.82;99433.58;105321;1255;101973;-72
2023/04/18 03:08:10;;;;;;;33.50;17.90;;;;;;;8.02;81.72;99433.12;105156;1256;107565;-74
2023/04/18 03:10:38;;;;;;;30.10;17.40;;;;;;;8.00;81.71;99435.33;105293;1253;98338;-72
2023/04/18 03:13:06;;;;;;;33.00;17.70;;;;;;;7.97;81.85;99431.42;105407;1255;98421;-77
2023/04/18 03:15:34;;;;;;;32.30;17.90;;;;;;;7.95;81.55;99438.10;105072;1256;182469;-72
2023/04/18 03:18:02;;;;;;;32.00;17.80;;;;;;;7.93;81.64;99436.11;105355;1255;101511;-71
2023/04/18 03:20:30;;;;;;;30.70;16.50;;;;;;;7.90;81.71;99437.13;108676;1252;107582;-72
2023/04/18 03:22:58;;;;;;;31.80;16.90;;;;;;;7.88;81.80;99443.42;108775;1251;96031;-72
2023/04/18 03:25:25;;;;;;;29.50;17.10;;;;;;;7.86;81.65;99442.80;108782;1252;95592;-72
2023/04/18 03:27:53;;;;;;;29.00;17.40;;;;;;;7.84;81.54;99441.14;108773;1251;111690;-72
2023/04/18 03:30:21;;;;;;;32.40;16.60;;;;;;;7.83;81.67;99445.28;108713;1253;101840;-72
2023/04/18 03:32:49;;;;;;;25.10;14.70;;;;;;;7.81;81.50;99445.73;105958;1255;107612;-73
2023/04/18 03:35:17;;;;;;;28.60;15.70;;;;;;;7.80;81.69;99448.30;105395;1256;99266;-72
2023/04/18 03:37:44;;;;;;;28.60;16.20;;;;;;;7.79;81.69;99450.44;105443;1254;98434;-72
2023/04/18 03:40:12;;;;;;;26.80;15.10;;;;;;;7.80;81.74;99453.95;105394;1254;111368;-72
2023/04/18 03:42:40;;;;;;;27.30;16.10;;;;;;;7.80;81.83;99453.96;105187;1256;102975;-72
2023/04/18 03:45:08;;;;;;;28.10;16.30;;;;;;;7.79;81.70;99460.84;105401;1254;106123;-72
2023/04/18 03:47:36;;;;;;;31.40;17.00;;;;;;;7.80;81.77;99463.83;105400;1253;97936;-72
2023/04/18 03:50:05;;;;;;;29.40;16.30;;;;;;;7.80;81.98;99465.94;105375;1255;98026;-72
2023/04/18 03:52:32;;;;;;;28.00;16.70;;;;;;;7.80;81.86;99464.16;105322;1254;111255;-72
2023/04/18 03:55:00;;;;;;;27.90;15.30;;;;;;;7.79;81.93;99462.30;105233;1257;101822;-74
2023/04/18 03:57:28;;;;;;;27.70;16.30;;;;;;;7.78;81.92;99457.77;105372;1253;107104;-72
2023/04/18 03:59:56;;;;;;;29.40;16.50;;;;;;;7.75;81.86;99458.96;105361;1254;98025;-72
2023/04/18 04:02:25;;;;;;;28.50;16.00;;;;;;;7.73;81.72;99460.48;105697;1255;98459;-72
2023/04/18 04:04:53;;;;;;;26.60;14.70;;;;;;;7.71;81.76;99463.42;105394;1255;110962;-72
2023/04/18 04:07:20;;;;;;;26.70;14.50;;;;;;;7.69;81.80;99463.14;105421;1255;102021;-71
2023/04/18 04:09:48;;;;;;;28.60;15.10;;;;;;;7.69;81.81;99459.65;105085;1274;107762;-75
2023/04/18 04:12:16;;;;;;;27.20;15.30;;;;;;;7.70;81.83;99459.59;105182;1253;98898;-73
2023/04/18 04:14:44;;;;;;;27.40;16.00;;;;;;;7.71;81.98;99463.05;105285;1253;100938;-72
2023/04/18 04:17:12;;;;;;;30.50;16.80;;;;;;;7.74;81.92;99464.67;105471;1256;111328;-75
2023/04/18 04:19:40;;;;;;;28.00;15.40;;;;;;;7.77;82.00;99468.76;105460;1255;102513;-71
2023/04/18 04:22:08;;;;;;;28.10;16.60;;;;;;;7.79;82.02;99476.22;105149;1266;107109;-79
2023/04/18 04:24:37;;;;;;;27.90;15.80;;;;;;;7.84;81.87;99481.45;105203;1256;98628;-72
2023/04/18 04:27:05;;;;;;;27.20;16.30;;;;;;;7.89;82.05;99486.83;105367;1255;98386;-73
2023/04/18 04:29:34;;;;;;;29.40;16.00;;;;;;;7.93;82.00;99487.83;105447;1255;111248;-71
2023/04/18 04:32:04;;;;;;;26.20;14.90;;;;;;;7.96;82.07;99488.17;105390;1256;102728;-72
2023/04/18 04:34:33;;;;;;;28.00;15.20;;;;;;;8.01;81.91;99495.48;105364;1256;107626;-72
2023/04/18 04:37:01;;;;;;;29.10;15.40;;;;;;;8.05;82.00;99497.77;105330;1272;99231;-73
2023/04/18 04:39:29;;;;;;;29.50;15.30;;;;;;;8.08;81.96;99498.66;105258;1253;98521;-72
2023/04/18 04:41:57;;;;;;;26.80;15.20;;;;;;;8.13;82.08;99502.45;105451;1255;110356;-71
2023/04/18 04:44:25;;;;;;;28.60;15.70;;;;;;;8.22;81.97;99509.56;105161;1256;101844;-73
2023/04/18 04:46:53;;;;;;;30.50;16.20;;;;;;;8.27;82.07;99510.88;105225;1256;107650;-72
2023/04/18 04:49:21;;;;;;;27.90;15.20;;;;;;;8.33;82.07;99509.48;105395;1255;97936;-73
2023/04/18 04:51:49;;;;;;;27.00;15.00;;;;;;;8.37;82.00;99511.17;105180;1256;99241;-72
2023/04/18 04:54:16;;;;;;;28.20;15.40;;;;;;;8.40;82.23;99511.00;105459;1254;110886;-73
2023/04/18 04:56:44;;;;;;;29.60;15.00;;;;;;;8.45;82.21;99515.01;105153;1265;102215;-72
2023/04/18 04:59:13;;;;;;;26.50;14.00;;;;;;;8.48;82.02;99514.65;105310;1256;107757;-73
2023/04/18 05:01:41;;;;;;;28.00;15.20;;;;;;;8.51;82.15;99515.54;105591;1251;97944;-73
2023/04/18 05:04:09;;;;;;;28.20;14.70;;;;;;;8.55;82.25;99513.42;105128;1255;99368;-73
2023/04/18 05:06:37;;;;;;;26.10;14.10;;;;;;;8.57;82.17;99513.29;105094;1255;111269;-73
2023/04/18 05:09:07;;;;;;;27.00;13.20;;;;;;;8.58;82.18;99511.97;105242;1263;102236;-77
2023/04/18 05:11:34;;;;;;;25.40;14.10;;;;;;;8.59;82.09;99514.03;105404;1256;107736;-81
2023/04/18 05:14:03;;;;;;;26.00;13.70;;;;;;;8.58;82.10;99518.16;105054;1256;98433;-73
2023/04/18 05:16:30;;;;;;;24.20;13.10;;;;;;;8.58;82.00;99520.99;105319;1253;98872;-79
2023/04/18 05:18:58;;;;;;;24.00;12.60;;;;;;;8.60;81.95;99524.27;105314;1255;110828;-73
2023/04/18 05:21:27;;;;;;;25.40;13.00;;;;;;;8.59;81.95;99527.30;105419;1261;101573;-73
2023/04/18 05:23:55;;;;;;;26.00;12.50;;;;;;;8.60;81.96;99523.69;105352;1251;107625;-72
2023/04/18 05:26:24;;;;;;;22.90;12.60;;;;;;;8.62;82.06;99523.79;105361;1256;99266;-73
2023/04/18 05:28:52;;;;;;;24.70;12.60;;;;;;;8.63;81.96;99526.36;105317;1254;98545;-73
2023/04/18 05:31:20;;;;;;;25.90;13.00;;;;;;;8.63;81.86;99533.09;105373;1261;110734;-74
2023/04/18 05:33:48;;;;;;;24.40;13.70;;;;;;;8.65;81.90;99532.11;105364;1256;102245;-74
2023/04/18 05:36:16;;;;;;;24.90;13.00;;;;;;;8.67;82.02;99529.53;105370;1255;107254;-74
2023/04/18 05:38:43;;;;;;;23.80;11.90;;;;;;;8.69;82.09;99532.45;105369;1256;97967;-73
2023/04/18 05:41:12;;;;;;;22.40;12.30;;;;;;;8.69;81.95;99538.96;105401;1253;99681;-73
2023/04/18 05:43:40;;;;;;;25.20;13.30;;;;;;;8.73;82.09;99545.08;105208;1256;110933;-74
2023/04/18 05:46:11;;;;;;;23.90;11.60;;;;;;;8.76;82.03;99543.64;105142;1267;102886;-72
2023/04/18 05:48:39;;;;;;;23.70;12.00;;;;;;;8.78;81.96;99541.40;105099;1256;106938;-72
2023/04/18 05:51:07;;;;;;;23.80;11.90;;;;;;;8.83;82.00;99544.84;105363;1256;98039;-73
2023/04/18 05:53:38;;;;;;;23.10;12.60;;;;;;;8.89;82.05;99541.52;105292;1256;98034;-74
2023/04/18 05:56:06;;;;;;;26.00;13.00;;;;;;;8.92;81.88;99540.29;105414;1254;111214;-73
2023/04/18 05:58:34;;;;;;;24.40;12.10;;;;;;;8.94;81.85;99540.33;105302;1256;102389;-72
2023/04/18 06:01:02;;;;;;;24.50;13.30;;;;;;;8.99;81.87;99543.22;105346;1255;107341;-73
2023/04/18 06:03:30;;;;;;;23.80;12.30;;;;;;;9.06;81.93;99544.61;105327;1256;97936;-71
2023/04/18 06:05:58;;;;;;;21.30;10.60;;;;;;;9.14;82.02;99545.70;105311;1256;98435;-72
2023/04/18 06:08:26;;;;;;;23.60;11.30;;;;;;;9.22;81.92;99545.08;105440;1255;110719;-74
2023/04/18 06:10:55;;;;;;;23.60;11.80;;;;;;;9.30;81.94;99543.02;105138;1260;101961;-79
2023/04/18 06:13:22;;;;;;;24.80;11.40;;;;;;;9.38;81.95;99539.53;105267;1256;108307;-72
2023/04/18 06:15:50;;;;;;;25.30;12.10;;;;;;;9.45;81.99;99538.20;105351;1256;98025;-72
2023/04/18 06:18:18;;;;;;;21.40;10.90;;;;;;;9.56;82.00;99543.41;105368;1256;99362;-73
2023/04/18 06:20:46;;;;;;;27.50;12.80;;;;;;;9.64;82.01;99542.57;105109;1274;111222;-73
2023/04/18 06:23:15;;;;;;;22.80;10.30;;;;;;;9.70;82.02;99543.81;105113;1265;102278;-77
2023/04/18 06:25:43;;;;;;;22.60;10.40;;;;;;;9.73;81.68;99543.96;105334;1264;107073;-73
2023/04/18 06:28:11;;;;;;;22.60;10.90;;;;;;;9.77;81.74;99545.14;105369;1264;97949;-73
2023/04/18 06:30:38;;;;;;;20.80;9.80;;;;;;;9.78;81.55;99546.88;105092;1273;99704;-75
2023/04/18 06:33:09;;;;;;;25.60;10.90;;;;;;;9.80;81.75;99541.20;105086;1267;111289;-74
2023/04/18 06:35:37;;;;;;;21.90;11.00;;;;;;;9.82;81.86;99536.48;105162;1256;102440;-73
2023/04/18 06:38:05;;;;;;;22.30;9.80;;;;;;;9.84;81.60;99530.91;105036;1269;107185;-77
2023/04/18 06:40:33;;;;;;;21.40;10.80;;;;;;;9.90;81.70;99535.16;105365;1253;98021;-73
2023/04/18 06:43:01;;;;;;;22.60;11.20;;;;;;;9.97;81.67;99539.63;105360;1254;98347;-73
2023/04/18 06:45:30;;;;;;;21.60;10.60;;;;;;;10.06;81.83;99544.60;105347;1256;110869;-73
2023/04/18 06:48:04;;;;;;;19.70;9.60;;;;;;;10.20;81.85;99545.31;105334;1253;102026;-73
2023/04/18 06:50:32;;;;;;;23.40;10.30;;;;;;;10.34;81.79;99539.15;105292;1256;107637;-74
2023/04/18 06:52:59;;;;;;;21.50;10.10;;;;;;;10.45;81.74;99543.04;105344;1251;98015;-73
2023/04/18 06:55:28;;;;;;;19.90;9.00;;;;;;;10.56;81.65;99545.36;105374;1254;98945;-74
2023/04/18 06:57:56;;;;;;;20.70;9.30;;;;;;;10.65;81.59;99541.56;105282;1256;111224;-73
2023/04/18 07:00:24;;;;;;;20.20;8.80;;;;;;;10.76;81.70;99540.38;105413;1256;102218;-72
2023/04/18 07:02:52;;;;;;;21.00;9.90;;;;;;;10.84;81.67;99542.83;105426;1266;107389;-72
2023/04/18 07:05:20;;;;;;;21.10;8.20;;;;;;;10.85;81.49;99546.85;105142;1256;97967;-72
2023/04/18 07:07:48;;;;;;;19.20;9.30;;;;;;;10.83;81.36;99546.82;105288;1259;99576;-74
2023/04/18 07:10:17;;;;;;;20.10;8.60;;;;;;;10.81;81.34;99549.46;105100;1264;110482;-73
2023/04/18 07:12:46;;;;;;;19.40;9.10;;;;;;;10.86;81.29;99553.16;105125;1253;101912;-73
2023/04/18 07:15:14;;;;;;;23.30;9.10;;;;;;;10.90;81.08;99550.44;105249;1256;107586;-77
2023/04/18 07:17:42;;;;;;;22.90;9.30;;;;;;;10.98;81.05;99553.62;105450;1256;97957;-73
2023/04/18 07:20:10;;;;;;;19.80;8.10;;;;;;;11.10;81.27;99556.35;105087;1261;99086;-73
2023/04/18 07:22:41;;;;;;;18.00;8.30;;;;;;;11.18;81.33;99556.02;105220;1258;109844;-75
2023/04/18 07:25:09;;;;;;;18.80;8.40;;;;;;;11.25;81.10;99553.77;105369;1254;101903;-73
2023/04/18 07:27:37;;;;;;;16.70;7.80;;;;;;;11.38;80.97;99558.61;105280;1256;107377;-73
2023/04/18 07:30:05;;;;;;;21.80;8.90;;;;;;;11.44;80.64;99558.89;105136;1258;97904;-72
2023/04/18 07:32:34;;;;;;;17.00;8.20;;;;;;;11.48;80.68;99558.06;105338;1256;98560;-73
2023/04/18 07:35:03;;;;;;;17.70;8.00;;;;;;;11.53;80.90;99557.05;105301;1256;111711;-73
2023/04/18 07:37:31;;;;;;;19.40;8.10;;;;;;;11.56;80.62;99558.25;105367;1259;102446;-73
2023/04/18 07:39:59;;;;;;;16.70;7.40;;;;;;;11.59;80.69;99558.59;105076;1267;107647;-72
2023/04/18 07:42:27;;;;;;;17.10;7.50;;;;;;;11.62;80.56;99556.20;105196;1256;99336;-72
2023/04/18 07:44:57;;;;;;;20.60;8.30;;;;;;;11.66;80.50;99557.94;105430;1255;99132;-82
2023/04/18 07:47:27;;;;;;;17.20;7.60;;;;;;;11.67;80.45;99559.98;105390;1254;110346;-74
2023/04/18 07:49:57;;;;;;;17.90;7.50;;;;;;;11.72;80.23;99557.52;105216;1257;102210;-72
2023/04/18 07:52:25;;;;;;;14.90;7.40;;;;;;;11.76;79.88;99557.79;105393;1257;107190;-75
2023/04/18 07:54:53;;;;;;;19.00;7.80;;;;;;;11.85;79.91;99556.40;105062;1261;99160;-74
2023/04/18 07:57:21;;;;;;;18.40;7.40;;;;;;;12.00;80.22;99557.36;105398;1255;99251;-72
2023/04/18 07:59:52;;;;;;;17.20;7.40;;;;;;;12.09;80.06;99553.71;105193;1266;111172;-73
2023/04/18 08:02:20;;;;;;;16.90;7.70;;;;;;;12.16;79.97;99556.42;105303;1267;102788;-73
2023/04/18 08:04:50;;;;;;;17.70;7.20;;;;;;;12.25;79.46;99554.20;105268;1266;108397;-73
2023/04/18 08:07:18;;;;;;;20.40;8.10;;;;;;;12.32;79.88;99556.71;105278;1268;99275;-72
2023/04/18 08:09:47;;;;;;;18.70;7.40;;;;;;;12.40;78.74;99558.30;105412;1261;98328;-73
2023/04/18 08:12:15;;;;;;;14.60;7.00;;;;;;;12.42;79.10;99558.29;105426;1254;110686;-81
2023/04/18 08:14:43;;;;;;;18.80;7.20;;;;;;;12.52;79.63;99557.61;105152;1266;102024;-73
2023/04/18 08:17:11;;;;;;;16.10;6.60;;;;;;;12.53;79.10;99556.48;105189;1257;108670;-73
2023/04/18 08:19:39;;;;;;;15.60;6.70;;;;;;;12.50;78.86;99555.95;105274;1256;97951;-73
2023/04/18 08:22:09;;;;;;;19.80;7.50;;;;;;;12.58;78.93;99554.81;105140;1256;98633;-73
2023/04/18 08:24:37;;;;;;;15.00;6.90;;;;;;;12.68;78.81;99559.23;105239;1256;111223;-73
2023/04/18 08:27:05;;;;;;;17.80;7.00;;;;;;;12.71;78.80;99560.31;105376;1254;102182;-75
2023/04/18 08:29:33;;;;;;;17.50;7.20;;;;;;;12.74;78.60;99563.08;105394;1255;106782;-73
2023/04/18 08:32:05;;;;;;;15.30;6.80;;;;;;;12.79;78.78;99559.36;105264;1256;98853;-74
2023/04/18 08:34:35;;;;;;;16.40;7.10;;;;;;;12.85;78.34;99560.69;105266;1256;98530;-73
2023/04/18 08:37:03;;;;;;;16.50;7.20;;;;;;;12.84;78.22;99562.37;105326;1255;111235;-74
2023/04/18 08:39:31;;;;;;;15.30;6.40;;;;;;;12.92;78.36;99556.44;105223;1258;102224;-74
2023/04/18 08:42:00;;;;;;;15.30;6.60;;;;;;;13.03;78.40;99558.83;105193;1256;107534;-77
2023/04/18 08:44:29;;;;;;;16.50;7.10;;;;;;;13.12;78.30;99560.81;105355;1256;97969;-74
2023/04/18 08:46:58;;;;;;;16.20;6.70;;;;;;;13.12;78.00;99564.55;105215;1256;98616;-75
2023/04/18 08:49:27;;;;;;;13.60;6.40;;;;;;;13.15;77.84;99559.17;105201;1256;110891;-73
2023/04/18 08:51:56;;;;;;;15.70;6.40;;;;;;;13.26;77.77;99564.56;105327;1265;102037;-79
2023/04/18 08:54:25;;;;;;;15.60;6.60;;;;;;;13.34;77.33;99566.27;105252;1266;106837;-74
2023/04/18 08:57:07;;;;;;;14.60;6.80;;;;;;;13.39;77.31;99565.42;105306;1257;98030;-73
2023/04/18 08:59:35;;;;;;;15.30;6.50;;;;;;;13.43;77.24;99563.51;105319;1256;98424;-74
2023/04/18 09:02:07;;;;;;;16.20;6.50;;;;;;;13.49;77.01;99566.42;105173;1266;112025;-74
2023/04/18 09:04:43;;;;;;;13.30;6.20;;;;;;;13.53;77.07;99566.52;105385;1256;100858;-74
2023/04/18 09:07:13;;;;;;;11.90;6.00;;;;;;;13.56;76.86;99562.20;105229;1267;107641;-73
2023/04/18 09:09:53;;;;;;;19.00;6.10;;;;;;;13.65;76.72;99559.52;105329;1257;97992;-73
2023/04/18 09:12:28;;;;;;;17.60;5.90;;;;;;;13.67;76.46;99554.92;105310;1264;99295;-74
2023/04/18 09:15:19;;;;;;;14.90;5.80;;;;;;;13.73;76.16;99559.64;105220;1255;111080;-72
2023/04/18 09:17:49;;;;;;;14.60;5.80;;;;;;;13.74;75.74;99555.27;105265;1258;102494;-73
2023/04/18 09:20:25;;;;;;;14.40;5.90;;;;;;;13.79;75.73;99559.15;105189;1258;107410;-74
2023/04/18 09:22:56;;;;;;;12.50;5.50;;;;;;;13.88;75.69;99554.88;105287;1251;97893;-73
2023/04/18 09:25:33;;;;;;;12.80;5.50;;;;;;;13.98;75.68;99554.27;105406;1251;98359;-74
2023/04/18 09:28:13;;;;;;;14.50;5.50;;;;;;;14.11;75.71;99551.12;105155;1254;110912;-73
2023/04/18 09:30:41;;;;;;;11.10;4.70;;;;;;;14.19;75.01;99550.46;105117;1255;101834;-73
2023/04/18 09:33:10;;;;;;;9.70;4.60;;;;;;;14.32;75.01;99550.90;105125;1258;107643;-73
2023/04/18 09:35:38;;;;;;;9.00;3.90;;;;;;;14.44;74.68;99547.57;105121;1266;99256;-73
2023/04/18 09:38:06;;;;;;;11.90;4.30;;;;;;;14.63;74.97;99544.99;105394;1257;98446;-74
2023/04/18 09:40:34;;;;;;;7.80;3.70;;;;;;;14.69;73.56;99543.09;105323;1257;110694;-73
2023/04/18 09:43:17;;;;;;;12.10;3.80;;;;;;;14.75;73.59;99544.71;105172;1257;101449;-73
2023/04/18 09:45:47;;;;;;;8.00;3.70;;;;;;;14.79;73.07;99541.79;105259;1273;107010;-74
2023/04/18 09:48:16;;;;;;;7.10;3.60;;;;;;;14.85;72.50;99541.97;105285;1257;98061;-80
2023/04/18 09:50:45;;;;;;;8.40;3.30;;;;;;;14.92;73.50;99548.22;105405;1254;98374;-72
2023/04/18 09:53:17;;;;;;;9.90;3.60;;;;;;;14.97;71.87;99548.10;105285;1255;110787;-78
2023/04/18 09:55:53;;;;;;;9.50;3.20;;;;;;;14.96;71.94;99546.27;105175;1256;102809;-72
2023/04/18 09:58:30;;;;;;;8.80;3.70;;;;;;;14.93;71.68;99540.92;105281;1257;107166;-73
2023/04/18 10:00:58;;;;;;;6.50;3.40;;;;;;;15.04;71.76;99536.63;105225;1256;98369;-74
2023/04/18 10:03:33;;;;;;;7.00;3.20;;;;;;;15.11;70.90;99537.09;105649;1256;98380;-74
2023/04/18 10:06:02;;;;;;;5.20;3.10;;;;;;;15.11;69.36;99533.56;105290;1256;109823;-71
2023/04/18 10:08:31;;;;;;;10.20;3.40;;;;;;;15.21;69.34;99529.54;105331;1266;102026;-75
2023/04/18 10:11:00;;;;;;;6.50;3.30;;;;;;;15.22;69.30;99531.39;105136;1266;107699;-74
2023/04/18 10:13:29;;;;;;;10.40;4.10;;;;;;;15.26;69.92;99527.48;105244;1257;98767;-74
2023/04/18 10:15:57;;;;;;;10.70;3.60;;;;;;;15.34;69.59;99525.52;105343;1255;98348;-73
2023/04/18 10:18:25;;;;;;;10.60;3.40;;;;;;;15.47;69.35;99532.12;105363;1251;111673;-74
2023/04/18 10:21:01;;;;;;;9.70;3.90;;;;;;;15.44;69.32;99527.20;105503;1251;102262;-74
2023/04/18 10:23:36;;;;;;;11.80;4.10;;;;;;;15.50;67.42;99520.98;105074;1269;106975;-74
2023/04/18 10:26:09;;;;;;;8.70;3.10;;;;;;;15.59;69.51;99520.23;105220;1257;97944;-73
2023/04/18 10:28:53;;;;;;;8.90;4.10;;;;;;;15.71;68.06;99524.00;105250;1256;97966;-74
2023/04/18 10:31:23;;;;;;;8.70;3.80;;;;;;;15.70;68.45;99521.06;105364;1257;111276;-74
2023/04/18 10:33:54;;;;;;;8.80;3.50;;;;;;;15.72;68.89;99523.37;105306;1258;101874;-74
2023/04/18 10:36:32;;;;;;;13.60;5.10;;;;;;;15.75;67.86;99527.02;105358;1251;107660;-74
2023/04/18 10:39:19;;;;;;;9.10;4.10;;;;;;;15.70;68.20;99518.02;105246;1255;97992;-74
2023/04/18 10:41:49;;;;;;;8.50;3.40;;;;;;;15.68;67.67;99515.89;105305;1257;98361;-74
2023/04/18 10:44:21;;;;;;;11.90;3.90;;;;;;;15.69;65.63;99516.52;105331;1251;109841;-74
2023/04/18 10:46:49;;;;;;;10.30;4.20;;;;;;;15.72;67.63;99515.00;105288;1265;102304;-74
2023/04/18 10:49:27;;;;;;;9.70;4.20;;;;;;;15.75;67.01;99514.00;105372;1257;108203;-74
2023/04/18 10:52:00;;;;;;;10.40;3.60;;;;;;;15.70;66.74;99510.87;105315;1255;97940;-74
2023/04/18 10:54:55;;;;;;;8.10;3.90;;;;;;;15.73;67.36;99510.40;105285;1251;98621;-76
2023/04/18 10:57:37;;;;;;;9.60;4.80;;;;;;;15.73;66.03;99517.01;105466;1251;110238;-74
2023/04/18 11:00:10;;;;;;;11.90;4.00;;;;;;;15.61;64.53;99510.60;105313;1257;101472;-73
2023/04/18 11:02:39;;;;;;;11.50;3.90;;;;;;;15.58;65.45;99507.05;105142;1267;106836;-72
2023/04/18 11:05:07;;;;;;;10.50;4.10;;;;;;;15.60;65.89;99504.41;105261;1254;99250;-74
2023/04/18 11:07:44;;;;;;;9.90;4.20;;;;;;;15.62;66.15;99503.72;105278;1251;99256;-74
2023/04/18 11:10:18;;;;;;;7.90;3.80;;;;;;;15.68;65.73;99501.35;105350;1251;110818;-73
2023/04/18 11:12:46;;;;;;;10.70;4.80;;;;;;;15.74;65.10;99498.33;105316;1256;102264;-73
2023/04/18 11:15:23;;;;;;;9.90;4.30;;;;;;;15.68;64.63;99496.55;105237;1267;107611;-82
2023/04/18 11:18:03;;;;;;;11.90;4.80;;;;;;;15.65;64.00;99500.94;105089;1256;98408;-73
2023/04/18 11:20:40;;;;;;;10.30;4.00;;;;;;;15.59;63.31;99499.33;105301;1254;99154;-73
2023/04/18 11:23:22;;;;;;;11.20;4.80;;;;;;;15.48;62.26;99496.70;105312;1251;110954;-73
2023/04/18 11:25:52;;;;;;;9.80;4.40;;;;;;;15.40;63.49;99497.71;105181;1257;101918;-73